createdAt,value
2022-11-29T00:00:52.822Z,47.60
2022-11-29T00:01:52.865Z,45.60
2022-11-29T00:02:52.864Z,50.90
2022-11-29T00:03:52.706Z,53.70
2022-11-29T00:04:52.657Z,48.20
2022-11-29T00:05:52.611Z,51.30
2022-11-29T00:06:52.587Z,51.20
2022-11-29T00:07:52.548Z,55.30
2022-11-29T00:08:52.503Z,47.60
2022-11-29T00:09:52.437Z,53.60
2022-11-29T00:10:53.103Z,51.60
2022-11-29T00:11:52.352Z,49.00
2022-11-29T00:12:52.312Z,54.30
2022-11-29T00:13:52.271Z,49.10
2022-11-29T00:14:52.241Z,49.20
2022-11-29T00:15:52.189Z,51.50
2022-11-29T00:16:52.193Z,50.10
2022-11-29T00:17:52.109Z,47.80
2022-11-29T00:18:52.060Z,53.00
2022-11-29T00:19:52.037Z,48.40
2022-11-29T00:20:51.970Z,54.00
2022-11-29T00:21:52.608Z,49.70
2022-11-29T00:22:51.894Z,51.20
2022-11-29T00:23:51.860Z,57.30
2022-11-29T00:24:51.812Z,55.50
2022-11-29T00:25:51.789Z,52.40
2022-11-29T00:26:51.724Z,60.20
2022-11-29T00:27:51.688Z,56.10
2022-11-29T00:28:51.639Z,61.30
2022-11-29T00:29:51.601Z,66.00
2022-11-29T00:30:51.597Z,66.50
2022-11-29T00:31:51.520Z,60.50
2022-11-29T00:32:51.487Z,71.60
2022-11-29T00:33:51.462Z,61.60
2022-11-29T00:34:51.408Z,63.30
2022-11-29T00:35:51.388Z,65.40
2022-11-29T00:36:51.321Z,62.80
2022-11-29T00:37:51.285Z,70.70
2022-11-29T00:38:51.228Z,69.70
2022-11-29T00:39:51.203Z,70.00
2022-11-29T00:40:51.172Z,70.20
2022-11-29T00:41:51.105Z,78.70
2022-11-29T00:42:51.078Z,75.10
2022-11-29T00:43:51.020Z,77.70
2022-11-29T00:44:50.996Z,68.20
2022-11-29T00:45:51.016Z,72.70
2022-11-29T00:46:50.887Z,76.70
2022-11-29T00:47:50.864Z,72.30
2022-11-29T00:48:50.810Z,75.70
2022-11-29T00:49:50.772Z,85.40
2022-11-29T00:50:50.727Z,67.90
2022-11-29T00:51:50.721Z,81.90
2022-11-29T00:52:50.640Z,72.20
2022-11-29T00:53:50.605Z,73.40
2022-11-29T00:54:50.565Z,67.50
2022-11-29T00:55:50.518Z,81.40
2022-11-29T00:56:50.506Z,75.70
2022-11-29T00:57:50.455Z,74.90
2022-11-29T00:58:50.399Z,74.30
2022-11-29T00:59:50.352Z,76.40
2022-11-29T01:00:50.299Z,85.10
2022-11-29T01:01:50.341Z,81.30
2022-11-29T01:02:50.273Z,85.20
2022-11-29T01:03:50.180Z,81.70
2022-11-29T01:04:50.131Z,78.80
2022-11-29T01:05:50.129Z,92.00
2022-11-29T01:06:50.054Z,86.60
2022-11-29T01:07:50.039Z,75.50
2022-11-29T01:08:49.986Z,77.00
2022-11-29T01:09:49.937Z,86.60
2022-11-29T01:10:49.898Z,71.90
2022-11-29T01:11:49.852Z,83.70
2022-11-29T01:12:49.806Z,91.90
2022-11-29T01:13:49.766Z,79.30
2022-11-29T01:14:49.732Z,84.10
2022-11-29T01:15:49.677Z,84.70
2022-11-29T01:16:49.680Z,92.60
2022-11-29T01:17:49.599Z,91.10
2022-11-29T01:18:49.560Z,90.10
2022-11-29T01:19:51.155Z,93.70
2022-11-29T01:20:49.465Z,89.30
2022-11-29T01:21:49.424Z,96.00
2022-11-29T01:22:49.383Z,97.70
2022-11-29T01:23:49.345Z,100.30
2022-11-29T01:24:49.310Z,97.20
2022-11-29T01:25:49.272Z,98.20
2022-11-29T01:29:02.893Z,98.10
2022-11-29T01:30:02.832Z,99.30
2022-11-29T01:31:02.883Z,99.50
2022-11-29T01:32:02.752Z,102.90
2022-11-29T01:33:02.709Z,98.30
2022-11-29T01:34:02.658Z,94.20
2022-11-29T01:35:02.952Z,92.40
2022-11-29T01:36:02.580Z,96.30
2022-11-29T01:37:02.543Z,98.90
2022-11-29T01:38:02.520Z,93.90
2022-11-29T01:39:02.463Z,94.90
2022-11-29T01:40:02.424Z,97.40
2022-11-29T01:41:02.395Z,96.20
2022-11-29T01:42:02.360Z,89.40
2022-11-29T01:43:09.852Z,102.30
2022-11-29T01:44:05.833Z,104.30
2022-11-29T01:45:08.824Z,109.10
2022-11-29T01:46:03.855Z,109.40
2022-11-29T01:47:05.865Z,105.30
2022-11-29T01:48:09.336Z,107.40
2022-11-29T01:49:06.896Z,96.80
2022-11-29T01:50:05.839Z,104.30
2022-11-29T01:51:12.329Z,100.00
2022-11-29T01:52:15.823Z,103.80
2022-11-29T01:53:12.842Z,109.80
2022-11-29T01:54:03.854Z,107.20
2022-11-29T01:55:04.332Z,104.60
2022-11-29T01:56:15.399Z,106.80
2022-11-29T01:58:21.831Z,110.40
2022-11-29T02:00:05.831Z,117.30
2022-11-29T02:01:05.360Z,118.80
2022-11-29T02:02:05.374Z,113.60
2022-11-29T02:03:05.187Z,112.30
2022-11-29T02:04:03.626Z,117.90
2022-11-29T02:05:09.351Z,115.50
2022-11-29T02:06:08.332Z,113.10
2022-11-29T02:07:01.981Z,128.10
2022-11-29T02:08:01.836Z,118.80
2022-11-29T02:09:03.836Z,123.70
2022-11-29T02:10:02.842Z,129.10
2022-11-29T02:11:06.370Z,130.20
2022-11-29T02:12:01.256Z,126.40
2022-11-29T02:13:01.836Z,128.80
2022-11-29T02:14:01.067Z,133.10
2022-11-29T02:15:01.831Z,128.60
2022-11-29T02:16:02.618Z,126.80
2022-11-29T02:17:01.866Z,138.00
2022-11-29T02:18:02.356Z,127.70
2022-11-29T02:19:00.917Z,137.30
2022-11-29T02:20:01.847Z,132.70
2022-11-29T02:21:03.834Z,137.70
2022-11-29T02:22:01.461Z,141.80
2022-11-29T02:23:00.790Z,127.10
2022-11-29T02:24:01.338Z,124.70
2022-11-29T02:25:08.836Z,123.60
2022-11-29T02:26:08.347Z,132.70
2022-11-29T02:27:01.655Z,133.20
2022-11-29T02:28:02.172Z,132.20
2022-11-29T02:29:04.371Z,134.10
2022-11-29T02:30:00.840Z,121.40
2022-11-29T02:31:17.398Z,141.00
2022-11-29T02:32:03.848Z,118.10
2022-11-29T02:33:01.840Z,136.40
2022-11-29T02:34:02.356Z,128.10
2022-11-29T02:35:01.034Z,135.20
2022-11-29T02:36:01.584Z,131.30
2022-11-29T02:37:03.256Z,128.40
2022-11-29T02:38:00.178Z,136.80
2022-11-29T02:39:02.847Z,151.00
2022-11-29T02:40:00.838Z,145.50
2022-11-29T02:41:01.841Z,140.50
2022-11-29T02:42:02.036Z,126.10
2022-11-29T02:43:02.857Z,146.10
2022-11-29T02:44:00.437Z,150.50
2022-11-29T02:45:00.631Z,125.70
2022-11-29T02:46:00.377Z,147.90
2022-11-29T02:47:01.049Z,144.60
2022-11-29T02:48:00.579Z,133.20
2022-11-29T02:48:59.629Z,153.50
2022-11-29T02:49:59.624Z,156.60
2022-11-29T02:51:00.402Z,149.40
2022-11-29T02:51:59.544Z,154.60
2022-11-29T02:52:59.481Z,154.70
2022-11-29T02:53:59.980Z,166.80
2022-11-29T02:54:59.378Z,123.60
2022-11-29T02:56:00.653Z,143.40
2022-11-29T02:56:59.251Z,141.10
2022-11-29T02:57:59.186Z,143.40
2022-11-29T02:58:59.164Z,157.50
2022-11-29T02:59:59.143Z,144.20
2022-11-29T03:00:59.087Z,144.50
2022-11-29T03:01:59.845Z,145.90
2022-11-29T03:03:00.136Z,144.60
2022-11-29T03:04:00.596Z,132.40
2022-11-29T03:05:00.851Z,148.10
2022-11-29T03:05:59.061Z,140.20
2022-11-29T03:06:59.352Z,154.60
2022-11-29T03:08:00.436Z,152.50
2022-11-29T03:08:59.981Z,151.00
2022-11-29T03:09:59.848Z,146.80
2022-11-29T03:11:00.721Z,164.10
2022-11-29T03:11:58.770Z,139.50
2022-11-29T03:12:58.672Z,141.80
2022-11-29T03:13:59.350Z,144.30
2022-11-29T03:14:59.349Z,147.90
2022-11-29T03:16:00.899Z,143.10
2022-11-29T03:17:02.876Z,150.40
2022-11-29T03:18:12.359Z,156.60
2022-11-29T03:19:04.855Z,158.20
2022-11-29T03:20:06.358Z,152.90
2022-11-29T03:21:04.382Z,159.70
2022-11-29T03:22:01.863Z,161.10
2022-11-29T03:23:01.356Z,162.00
2022-11-29T03:23:59.856Z,178.30
2022-11-29T03:24:58.850Z,158.90
2022-11-29T03:26:02.852Z,156.90
2022-11-29T03:26:59.360Z,152.70
2022-11-29T03:27:58.115Z,157.00
2022-11-29T03:28:59.888Z,162.90
2022-11-29T03:29:58.601Z,152.50
2022-11-29T03:30:59.134Z,164.90
2022-11-29T03:31:58.857Z,151.30
2022-11-29T03:32:58.564Z,138.70
2022-11-29T03:34:00.355Z,157.80
2022-11-29T03:35:01.855Z,165.90
2022-11-29T03:36:04.884Z,182.30
2022-11-29T03:38:06.356Z,171.20
2022-11-29T03:40:05.874Z,169.60
2022-11-29T03:45:54.387Z,180.30
2022-11-29T03:46:54.293Z,160.30
2022-11-29T03:47:54.244Z,169.60
2022-11-29T03:48:54.187Z,159.10
2022-11-29T03:49:54.149Z,157.90
2022-11-29T03:50:54.130Z,180.50
2022-11-29T03:51:54.076Z,187.60
2022-11-29T03:52:54.022Z,154.70
2022-11-29T03:53:53.994Z,164.90
2022-11-29T03:54:53.944Z,174.00
2022-11-29T03:55:53.915Z,177.50
2022-11-29T03:56:53.853Z,171.20
2022-11-29T03:57:53.820Z,173.10
2022-11-29T03:58:53.769Z,179.30
2022-11-29T03:59:53.744Z,170.60
2022-11-29T04:00:53.684Z,198.20
2022-11-29T04:01:53.683Z,207.90
2022-11-29T04:02:53.648Z,184.40
2022-11-29T04:03:53.568Z,205.70
2022-11-29T04:04:53.559Z,205.50
2022-11-29T04:05:53.506Z,186.30
2022-11-29T04:06:53.464Z,207.40
2022-11-29T04:07:53.456Z,249.40
2022-11-29T04:08:53.353Z,228.40
2022-11-29T04:09:53.320Z,255.00
2022-11-29T04:10:53.280Z,215.30
2022-11-29T04:11:53.242Z,247.60
2022-11-29T04:12:53.187Z,301.60
2022-11-29T04:13:53.183Z,275.80
2022-11-29T04:14:53.127Z,299.10
2022-11-29T04:15:53.098Z,292.20
2022-11-29T04:16:53.032Z,260.50
2022-11-29T04:17:53.012Z,255.90
2022-11-29T04:18:52.945Z,305.60
2022-11-29T04:19:52.902Z,289.70
2022-11-29T04:20:52.855Z,273.00
2022-11-29T04:21:52.816Z,273.70
2022-11-29T04:22:52.790Z,270.40
2022-11-29T04:23:52.737Z,307.30
2022-11-29T04:24:52.689Z,295.00
2022-11-29T04:25:52.704Z,269.10
2022-11-29T04:26:52.605Z,299.10
2022-11-29T04:27:52.564Z,317.70
2022-11-29T04:28:52.537Z,312.90
2022-11-29T04:30:11.171Z,304.10
2022-11-29T04:30:59.209Z,325.40
2022-11-29T04:31:53.735Z,288.10
2022-11-29T04:32:56.168Z,324.70
2022-11-29T04:33:56.688Z,317.20
2022-11-29T04:34:55.183Z,318.40
2022-11-29T04:35:55.151Z,304.30
2022-11-29T04:36:54.173Z,315.60
2022-11-29T04:37:53.153Z,285.20
2022-11-29T04:38:52.868Z,302.20
2022-11-29T04:39:55.160Z,324.50
2022-11-29T04:40:54.196Z,283.30
2022-11-29T04:41:55.659Z,336.80
2022-11-29T04:42:54.156Z,284.60
2022-11-29T04:43:58.191Z,322.70
2022-11-29T04:44:52.738Z,302.90
2022-11-29T04:46:04.233Z,300.90
2022-11-29T04:46:56.657Z,301.40
2022-11-29T04:47:57.178Z,307.30
2022-11-29T04:48:55.176Z,292.40
2022-11-29T04:49:57.674Z,334.70
2022-11-29T04:50:57.192Z,343.40
2022-11-29T04:52:00.163Z,325.40
2022-11-29T04:52:55.176Z,338.00
2022-11-29T04:53:52.716Z,336.40
2022-11-29T04:54:53.630Z,319.30
2022-11-29T04:55:58.164Z,323.80
2022-11-29T04:56:52.437Z,325.70
2022-11-29T04:57:52.160Z,297.20
2022-11-29T04:58:53.171Z,327.80
2022-11-29T04:59:52.341Z,336.00
2022-11-29T05:00:53.178Z,289.30
2022-11-29T05:01:51.353Z,365.60
2022-11-29T05:02:51.324Z,340.40
2022-11-29T05:03:56.733Z,346.20
2022-11-29T05:04:51.675Z,313.70
2022-11-29T05:05:51.765Z,318.10
2022-11-29T05:06:55.183Z,333.20
2022-11-29T05:07:51.710Z,340.80
2022-11-29T05:08:51.882Z,315.30
2022-11-29T05:09:51.976Z,338.00
2022-11-29T05:10:52.449Z,337.30
2022-11-29T05:11:53.181Z,327.90
2022-11-29T05:12:52.163Z,296.10
2022-11-29T05:13:54.662Z,334.30
2022-11-29T05:14:50.736Z,297.50
2022-11-29T05:15:51.333Z,299.00
2022-11-29T05:16:52.162Z,297.70
2022-11-29T05:17:52.177Z,317.50
2022-11-29T05:18:50.657Z,309.60
2022-11-29T05:19:51.274Z,317.10
2022-11-29T05:20:51.183Z,311.50
2022-11-29T05:21:50.380Z,289.40
2022-11-29T05:22:50.378Z,314.70
2022-11-29T05:23:52.700Z,311.70
2022-11-29T05:24:55.667Z,305.60
2022-11-29T05:25:53.164Z,291.00
2022-11-29T05:26:52.165Z,288.50
2022-11-29T05:27:52.684Z,299.50
2022-11-29T05:28:52.666Z,300.30
2022-11-29T05:29:50.685Z,319.50
2022-11-29T05:30:50.127Z,322.30
2022-11-29T05:31:50.683Z,315.70
2022-11-29T05:32:50.845Z,283.60
2022-11-29T05:33:49.947Z,309.40
2022-11-29T05:34:50.286Z,305.60
2022-11-29T05:35:50.794Z,308.00
2022-11-29T05:36:50.668Z,284.70
2022-11-29T05:37:50.310Z,293.90
2022-11-29T05:38:50.676Z,300.20
2022-11-29T05:39:51.675Z,301.30
2022-11-29T05:40:50.675Z,314.80
2022-11-29T05:41:50.307Z,290.90
2022-11-29T05:42:49.725Z,283.40
2022-11-29T05:43:50.266Z,258.50
2022-11-29T05:44:50.173Z,293.40
2022-11-29T05:45:49.435Z,287.40
2022-11-29T05:46:50.340Z,295.30
2022-11-29T05:47:49.330Z,274.40
2022-11-29T05:48:49.270Z,238.50
2022-11-29T05:49:49.226Z,276.10
2022-11-29T05:50:49.181Z,254.30
2022-11-29T05:51:49.138Z,261.10
2022-11-29T05:52:49.118Z,250.90
2022-11-29T05:53:49.038Z,224.20
2022-11-29T05:54:48.996Z,232.70
2022-11-29T05:55:48.995Z,211.40
2022-11-29T05:56:48.943Z,219.80
2022-11-29T05:57:48.883Z,214.40
2022-11-29T05:58:48.809Z,214.40
2022-11-29T05:59:48.747Z,211.00
2022-11-29T06:00:48.801Z,201.50
2022-11-29T06:01:48.778Z,220.60
2022-11-29T06:02:48.694Z,224.20
2022-11-29T06:03:48.620Z,212.50
2022-11-29T06:04:48.542Z,225.10
2022-11-29T06:05:48.502Z,243.30
2022-11-29T06:06:48.504Z,223.50
2022-11-29T06:07:48.513Z,224.60
2022-11-29T06:08:48.380Z,212.90
2022-11-29T06:09:48.341Z,215.00
2022-11-29T06:10:48.276Z,212.30
2022-11-29T06:11:48.243Z,212.70
2022-11-29T06:12:48.204Z,208.20
2022-11-29T06:13:48.153Z,197.40
2022-11-29T06:14:48.120Z,214.40
2022-11-29T06:15:48.151Z,227.50
2022-11-29T06:16:48.050Z,200.60
2022-11-29T06:17:47.990Z,201.10
2022-11-29T06:18:47.963Z,215.80
2022-11-29T06:19:47.929Z,215.90
2022-11-29T06:20:47.884Z,203.60
2022-11-29T06:21:47.854Z,187.60
2022-11-29T06:22:47.783Z,189.80
2022-11-29T06:23:47.766Z,194.80
2022-11-29T06:24:47.852Z,202.20
2022-11-29T06:25:47.659Z,199.00
2022-11-29T06:26:47.624Z,210.70
2022-11-29T06:27:47.578Z,185.40
2022-11-29T06:28:47.552Z,194.30
2022-11-29T06:29:47.521Z,212.10
2022-11-29T06:30:47.473Z,210.40
2022-11-29T06:31:47.451Z,207.90
2022-11-29T06:32:47.358Z,181.40
2022-11-29T06:33:47.325Z,185.50
2022-11-29T06:34:47.599Z,179.70
2022-11-29T06:35:47.243Z,188.90
2022-11-29T06:36:47.227Z,202.50
2022-11-29T06:37:47.157Z,189.30
2022-11-29T06:38:47.113Z,216.40
2022-11-29T06:39:47.079Z,186.80
2022-11-29T06:40:47.041Z,190.30
2022-11-29T06:41:47.006Z,180.00
2022-11-29T06:42:46.950Z,193.10
2022-11-29T06:43:46.909Z,196.00
2022-11-29T06:44:47.224Z,194.70
2022-11-29T06:45:46.842Z,179.10
2022-11-29T06:46:46.832Z,189.30
2022-11-29T06:47:46.743Z,188.90
2022-11-29T06:48:46.696Z,188.50
2022-11-29T06:49:46.667Z,182.50
2022-11-29T06:50:46.609Z,186.40
2022-11-29T06:51:46.577Z,186.10
2022-11-29T06:52:47.321Z,187.40
2022-11-29T06:53:53.293Z,191.40
2022-11-29T06:54:46.908Z,186.70
2022-11-29T06:55:46.427Z,184.90
2022-11-29T06:56:46.412Z,175.70
2022-11-29T06:57:46.343Z,177.70
2022-11-29T06:58:46.297Z,175.40
2022-11-29T06:59:46.255Z,161.80
2022-11-29T07:00:46.225Z,179.80
2022-11-29T07:01:46.194Z,168.90
2022-11-29T07:02:46.140Z,165.20
2022-11-29T07:03:46.077Z,165.40
2022-11-29T07:04:46.575Z,169.80
2022-11-29T07:05:45.983Z,177.20
2022-11-29T07:06:48.766Z,165.50
2022-11-29T07:07:46.006Z,161.70
2022-11-29T07:08:45.862Z,157.20
2022-11-29T07:09:45.850Z,150.30
2022-11-29T07:10:45.784Z,160.60
2022-11-29T07:11:46.280Z,164.20
2022-11-29T07:12:45.697Z,148.40
2022-11-29T07:13:45.684Z,146.30
2022-11-29T07:14:54.696Z,151.90
2022-11-29T07:15:53.247Z,142.40
2022-11-29T07:16:45.533Z,147.90
2022-11-29T07:17:48.384Z,144.40
2022-11-29T07:18:48.083Z,138.40
2022-11-29T07:19:46.200Z,137.90
2022-11-29T07:20:45.368Z,134.20
2022-11-29T07:21:45.332Z,126.70
2022-11-29T07:22:45.301Z,137.80
2022-11-29T07:23:45.230Z,136.10
2022-11-29T07:24:45.460Z,132.70
2022-11-29T07:26:45.202Z,141.60
2022-11-29T07:27:45.061Z,132.00
2022-11-29T07:28:45.025Z,141.50
2022-11-29T07:29:54.303Z,140.40
2022-11-29T07:30:44.940Z,136.00
2022-11-29T07:31:44.956Z,143.80
2022-11-29T07:32:50.370Z,136.70
2022-11-29T07:33:44.811Z,139.30
2022-11-29T07:34:45.102Z,133.00
2022-11-29T07:35:44.725Z,138.90
2022-11-29T07:36:44.685Z,152.70
2022-11-29T07:37:44.655Z,154.00
2022-11-29T07:38:44.607Z,146.80
2022-11-29T07:39:44.555Z,144.80
2022-11-29T07:40:44.521Z,134.70
2022-11-29T07:41:44.477Z,136.40
2022-11-29T07:42:44.448Z,135.90
2022-11-29T07:43:44.403Z,137.30
2022-11-29T07:44:44.726Z,137.20
2022-11-29T07:45:44.307Z,136.00
2022-11-29T07:46:44.323Z,134.10
2022-11-29T07:47:44.223Z,134.80
2022-11-29T07:48:44.190Z,129.90
2022-11-29T07:49:44.159Z,128.50
2022-11-29T07:50:44.108Z,122.00
2022-11-29T07:51:44.057Z,119.80
2022-11-29T07:52:44.020Z,119.10
2022-11-29T07:53:43.989Z,124.20
2022-11-29T07:54:44.441Z,117.90
2022-11-29T07:55:43.889Z,119.00
2022-11-29T07:56:43.849Z,116.20
2022-11-29T07:57:43.820Z,119.90
2022-11-29T07:58:43.881Z,117.40
2022-11-29T07:59:43.977Z,118.20
2022-11-29T08:00:43.731Z,118.00
2022-11-29T08:01:43.695Z,124.80
2022-11-29T08:02:43.603Z,130.10
2022-11-29T08:03:43.561Z,115.10
2022-11-29T08:04:43.836Z,123.00
2022-11-29T08:05:43.476Z,110.50
2022-11-29T08:06:43.433Z,110.00
2022-11-29T08:07:43.513Z,112.80
2022-11-29T08:08:44.326Z,112.00
2022-11-29T08:09:43.611Z,113.10
2022-11-29T08:10:43.269Z,112.70
2022-11-29T08:11:46.766Z,111.90
2022-11-29T08:12:43.198Z,107.60
2022-11-29T08:13:43.143Z,109.80
2022-11-29T08:14:43.478Z,106.20
2022-11-29T08:15:43.056Z,115.50
2022-11-29T08:16:43.075Z,113.10
2022-11-29T08:17:43.901Z,113.10
2022-11-29T08:18:44.916Z,113.10
2022-11-29T08:19:42.893Z,116.80
2022-11-29T08:20:42.855Z,114.90
2022-11-29T08:21:42.808Z,120.20
2022-11-29T08:22:42.783Z,110.00
2022-11-29T08:23:42.724Z,114.70
2022-11-29T08:24:43.044Z,117.60
2022-11-29T08:25:42.645Z,112.80
2022-11-29T08:26:42.602Z,114.90
2022-11-29T08:27:42.559Z,117.40
2022-11-29T08:28:42.542Z,116.60
2022-11-29T08:29:42.474Z,118.00
2022-11-29T08:30:42.437Z,119.70
2022-11-29T08:31:42.425Z,116.90
2022-11-29T08:32:44.842Z,118.50
2022-11-29T08:33:42.309Z,127.80
2022-11-29T08:34:42.461Z,126.60
2022-11-29T08:35:42.243Z,122.40
2022-11-29T08:36:42.184Z,121.90
2022-11-29T08:37:42.152Z,115.70
2022-11-29T08:38:42.108Z,116.00
2022-11-29T08:39:42.070Z,114.60
2022-11-29T08:40:42.054Z,123.50
2022-11-29T08:41:41.977Z,118.80
2022-11-29T08:42:41.940Z,114.50
2022-11-29T08:43:41.909Z,112.90
2022-11-29T08:44:41.854Z,115.90
2022-11-29T08:45:41.847Z,109.00
2022-11-29T08:46:41.826Z,114.30
2022-11-29T08:47:41.727Z,120.70
2022-11-29T08:48:41.690Z,110.80
2022-11-29T08:49:41.657Z,112.20
2022-11-29T08:50:41.618Z,112.60
2022-11-29T08:51:41.603Z,112.70
2022-11-29T08:52:41.528Z,114.80
2022-11-29T08:53:41.485Z,128.20
2022-11-29T08:54:41.446Z,119.10
2022-11-29T08:55:41.396Z,123.30
2022-11-29T08:57:41.553Z,133.10
2022-11-29T08:58:41.276Z,127.30
2022-11-29T08:59:41.231Z,126.70
2022-11-29T09:00:41.248Z,123.00
2022-11-29T09:01:41.149Z,131.10
2022-11-29T09:02:41.157Z,137.90
2022-11-29T09:03:41.074Z,139.80
2022-11-29T09:04:41.030Z,137.00
2022-11-29T09:05:40.982Z,130.70
2022-11-29T09:06:40.946Z,138.00
2022-11-29T09:07:40.940Z,140.80
2022-11-29T09:08:40.868Z,141.30
2022-11-29T09:09:40.826Z,137.00
2022-11-29T09:10:40.793Z,151.70
2022-11-29T09:11:40.736Z,153.70
2022-11-29T09:12:40.699Z,141.80
2022-11-29T09:13:40.659Z,148.30
2022-11-29T09:14:40.613Z,156.20
2022-11-29T09:15:40.604Z,156.40
2022-11-29T09:16:40.597Z,155.80
2022-11-29T09:17:40.490Z,160.80
2022-11-29T09:18:40.462Z,165.30
2022-11-29T09:19:40.402Z,162.70
2022-11-29T09:20:40.364Z,160.50
2022-11-29T09:21:40.334Z,176.40
2022-11-29T09:22:40.280Z,162.30
2022-11-29T09:23:40.234Z,170.10
2022-11-29T09:24:40.204Z,171.30
2022-11-29T09:25:40.157Z,166.70
2022-11-29T09:26:40.143Z,169.50
2022-11-29T09:27:40.080Z,172.50
2022-11-29T09:28:40.032Z,159.60
2022-11-29T09:29:39.989Z,156.70
2022-11-29T09:30:39.953Z,155.10
2022-11-29T09:31:39.964Z,145.60
2022-11-29T09:32:39.887Z,148.70
2022-11-29T09:33:39.835Z,158.30
2022-11-29T09:34:39.798Z,159.10
2022-11-29T09:35:39.738Z,158.30
2022-11-29T09:36:39.710Z,159.90
2022-11-29T09:37:39.654Z,156.60
2022-11-29T09:38:39.622Z,147.00
2022-11-29T09:39:39.571Z,146.30
2022-11-29T09:40:39.538Z,164.50
2022-11-29T09:41:42.983Z,152.60
2022-11-29T09:42:39.488Z,162.60
2022-11-29T09:43:39.420Z,160.40
2022-11-29T09:44:39.385Z,157.10
2022-11-29T09:45:39.370Z,162.40
2022-11-29T09:46:39.291Z,167.60
2022-11-29T09:47:39.243Z,168.40
2022-11-29T09:48:39.223Z,165.20
2022-11-29T09:49:39.158Z,165.30
2022-11-29T09:50:39.131Z,162.50
2022-11-29T09:51:44.040Z,169.10
2022-11-29T09:52:39.047Z,167.40
2022-11-29T09:53:38.997Z,159.80
2022-11-29T09:54:38.968Z,169.60
2022-11-29T09:55:38.916Z,170.10
2022-11-29T09:56:38.869Z,174.90
2022-11-29T09:57:38.836Z,161.10
2022-11-29T09:58:38.788Z,161.10
2022-11-29T09:59:38.744Z,160.60
2022-11-29T10:00:38.724Z,164.10
2022-11-29T10:01:38.708Z,152.90
2022-11-29T10:02:38.666Z,162.00
2022-11-29T10:03:38.575Z,159.20
2022-11-29T10:04:38.538Z,153.40
2022-11-29T10:05:38.502Z,162.90
2022-11-29T10:06:38.471Z,157.20
2022-11-29T10:07:38.445Z,157.60
2022-11-29T10:08:38.394Z,150.70
2022-11-29T10:09:38.331Z,161.20
2022-11-29T10:10:38.292Z,155.80
2022-11-29T10:11:38.256Z,163.60
2022-11-29T10:12:38.208Z,157.10
2022-11-29T10:13:38.191Z,157.60
2022-11-29T10:14:38.128Z,158.80
2022-11-29T10:15:38.084Z,155.00
2022-11-29T10:16:38.139Z,158.10
2022-11-29T10:17:38.001Z,159.30
2022-11-29T10:18:37.961Z,175.90
2022-11-29T10:19:37.918Z,162.90
2022-11-29T10:20:41.424Z,171.20
2022-11-29T10:21:37.838Z,168.60
2022-11-29T10:22:37.809Z,160.80
2022-11-29T10:23:37.767Z,160.20
2022-11-29T10:24:37.732Z,158.70
2022-11-29T10:25:37.670Z,147.40
2022-11-29T10:26:37.632Z,161.10
2022-11-29T10:27:37.607Z,166.50
2022-11-29T10:28:37.547Z,157.50
2022-11-29T10:29:37.519Z,177.60
2022-11-29T10:30:37.508Z,169.30
2022-11-29T10:31:37.431Z,159.20
2022-11-29T10:32:37.392Z,160.80
2022-11-29T10:33:38.478Z,157.10
2022-11-29T10:34:37.303Z,158.00
2022-11-29T10:35:37.272Z,147.70
2022-11-29T10:36:37.221Z,164.50
2022-11-29T10:37:37.175Z,154.00
2022-11-29T10:38:37.138Z,147.30
2022-11-29T10:39:37.094Z,146.00
2022-11-29T10:40:37.058Z,131.40
2022-11-29T10:41:37.018Z,114.50
2022-11-29T10:42:36.972Z,117.00
2022-11-29T10:43:36.949Z,110.10
2022-11-29T10:44:36.889Z,106.90
2022-11-29T10:45:36.893Z,105.60
2022-11-29T10:46:36.810Z,108.70
2022-11-29T10:47:36.774Z,104.70
2022-11-29T10:48:36.727Z,99.60
2022-11-29T10:49:36.678Z,95.60
2022-11-29T10:50:36.641Z,101.90
2022-11-29T10:51:36.599Z,104.60
2022-11-29T10:52:36.557Z,95.10
2022-11-29T10:53:36.531Z,106.20
2022-11-29T10:54:36.475Z,104.90
2022-11-29T10:55:36.436Z,98.10
2022-11-29T10:56:36.396Z,101.80
2022-11-29T10:57:36.353Z,98.30
2022-11-29T10:58:36.319Z,102.60
2022-11-29T10:59:36.282Z,95.00
2022-11-29T11:00:36.229Z,100.90
2022-11-29T11:01:36.205Z,97.00
2022-11-29T11:02:36.152Z,100.20
2022-11-29T11:03:36.103Z,98.90
2022-11-29T11:04:36.079Z,96.20
2022-11-29T11:05:36.056Z,99.10
2022-11-29T11:06:35.985Z,99.60
2022-11-29T11:07:36.070Z,92.80
2022-11-29T11:08:35.902Z,95.30
2022-11-29T11:09:35.870Z,89.30
2022-11-29T11:10:35.850Z,96.10
2022-11-29T11:11:35.779Z,85.80
2022-11-29T11:12:35.743Z,92.00
2022-11-29T11:13:35.698Z,101.10
2022-11-29T11:14:35.667Z,89.70
2022-11-29T11:15:35.617Z,96.80
2022-11-29T11:16:37.569Z,90.80
2022-11-29T11:17:35.531Z,99.60
2022-11-29T11:18:35.507Z,95.50
2022-11-29T11:19:35.462Z,98.00
2022-11-29T11:20:35.407Z,101.50
2022-11-29T11:21:35.362Z,97.70
2022-11-29T11:22:35.336Z,103.00
2022-11-29T11:23:39.878Z,103.50
2022-11-29T11:24:35.259Z,103.00
2022-11-29T11:25:35.204Z,103.30
2022-11-29T11:26:35.163Z,100.50
2022-11-29T11:27:35.133Z,107.00
2022-11-29T11:28:35.079Z,107.60
2022-11-29T11:29:35.048Z,104.60
2022-11-29T11:30:35.081Z,97.60
2022-11-29T11:31:34.970Z,108.30
2022-11-29T11:32:34.916Z,102.80
2022-11-29T11:33:34.873Z,97.60
2022-11-29T11:34:34.842Z,102.40
2022-11-29T11:35:34.802Z,98.30
2022-11-29T11:36:34.753Z,101.50
2022-11-29T11:37:34.722Z,98.80
2022-11-29T11:38:34.672Z,105.60
2022-11-29T11:39:34.633Z,105.80
2022-11-29T11:40:34.656Z,104.70
2022-11-29T11:41:34.556Z,111.70
2022-11-29T11:42:34.506Z,109.30
2022-11-29T11:43:34.471Z,110.20
2022-11-29T11:44:49.731Z,107.30
2022-11-29T11:45:34.381Z,103.20
2022-11-29T11:46:34.384Z,103.00
2022-11-29T11:47:34.302Z,109.80
2022-11-29T11:48:34.257Z,112.70
2022-11-29T11:49:34.221Z,106.40
2022-11-29T11:50:34.179Z,110.90
2022-11-29T11:51:34.135Z,101.40
2022-11-29T11:52:39.570Z,105.10
2022-11-29T11:53:34.053Z,117.40
2022-11-29T11:54:34.009Z,116.30
2022-11-29T11:55:33.976Z,112.90
2022-11-29T11:56:33.928Z,107.10
2022-11-29T11:57:33.891Z,105.60
2022-11-29T11:58:33.860Z,116.90
2022-11-29T11:59:33.820Z,102.30
2022-11-29T12:01:01.809Z,105.00
2022-11-29T12:01:33.724Z,112.10
2022-11-29T12:02:33.767Z,102.30
2022-11-29T12:03:33.682Z,117.30
2022-11-29T12:04:33.602Z,113.00
2022-11-29T12:05:33.571Z,104.10
2022-11-29T12:06:33.531Z,106.10
2022-11-29T12:07:59.723Z,104.80
2022-11-29T12:08:33.494Z,104.10
2022-11-29T12:09:33.412Z,105.10
2022-11-29T12:10:33.351Z,105.40
2022-11-29T12:11:33.317Z,102.50
2022-11-29T12:12:33.276Z,115.00
2022-11-29T12:13:33.236Z,102.60
2022-11-29T12:14:33.199Z,105.70
2022-11-29T12:15:33.216Z,101.40
2022-11-29T12:16:33.115Z,103.40
2022-11-29T12:17:33.069Z,103.00
2022-11-29T12:18:33.026Z,101.80
2022-11-29T12:19:32.994Z,101.00
2022-11-29T12:20:32.954Z,102.40
2022-11-29T12:21:32.904Z,105.90
2022-11-29T12:22:32.856Z,104.50
2022-11-29T12:23:32.819Z,109.60
2022-11-29T12:24:32.780Z,96.70
2022-11-29T12:25:32.735Z,95.30
2022-11-29T12:26:56.434Z,102.20
2022-11-29T12:27:32.662Z,97.40
2022-11-29T12:28:32.625Z,100.80
2022-11-29T12:29:32.571Z,87.60
2022-11-29T12:30:32.527Z,95.70
2022-11-29T12:31:32.558Z,90.00
2022-11-29T12:32:32.459Z,87.70
2022-11-29T12:33:32.423Z,93.90
2022-11-29T12:34:32.363Z,89.80
2022-11-29T12:35:32.322Z,88.20
2022-11-29T12:36:32.285Z,85.90
2022-11-29T12:37:32.240Z,86.20
2022-11-29T12:38:32.238Z,81.50
2022-11-29T12:39:32.167Z,88.10
2022-11-29T12:40:32.116Z,82.60
2022-11-29T12:41:32.078Z,88.90
2022-11-29T12:42:32.034Z,82.90
2022-11-29T12:43:32.007Z,83.10
2022-11-29T12:44:31.951Z,83.40
2022-11-29T12:45:31.925Z,83.10
2022-11-29T12:46:31.905Z,88.50